sensor_id;sensor_type;location;lat;lon;timestamp;pressure;altitude;pressure_sealevel;temperature;humidity
13312;BME280;34033;48.672;9.376;2024-03-02T00:02:13;97418.72;;;7.27;92.28
13312;BME280;34033;48.672;9.376;2024-03-02T00:04:39;97410.78;;;7.29;91.87
13312;BME280;34033;48.672;9.376;2024-03-02T00:07:04;97413.97;;;7.31;91.55
13312;BME280;34033;48.672;9.376;2024-03-02T00:09:31;97423.88;;;7.28;91.81
13312;BME280;34033;48.672;9.376;2024-03-02T00:11:56;97419.94;;;7.33;91.32
13312;BME280;34033;48.672;9.376;2024-03-02T00:14:22;97416.75;;;7.34;91.80
13312;BME280;34033;48.672;9.376;2024-03-02T00:16:49;97414.38;;;7.33;91.57
13312;BME280;34033;48.672;9.376;2024-03-02T00:19:14;97404.03;;;7.33;91.75
13312;BME280;34033;48.672;9.376;2024-03-02T00:21:40;97408.78;;;7.29;92.11
13312;BME280;34033;48.672;9.376;2024-03-02T00:24:18;97421.50;;;7.27;92.21
13312;BME280;34033;48.672;9.376;2024-03-02T00:26:45;97414.34;;;7.22;91.84
13312;BME280;34033;48.672;9.376;2024-03-02T00:29:13;97417.50;;;7.24;91.76
13312;BME280;34033;48.672;9.376;2024-03-02T00:31:40;97419.91;;;7.26;91.63
13312;BME280;34033;48.672;9.376;2024-03-02T00:34:06;97429.44;;;7.28;91.23
13312;BME280;34033;48.672;9.376;2024-03-02T00:36:31;97427.44;;;7.25;91.40
13312;BME280;34033;48.672;9.376;2024-03-02T00:38:57;97429.44;;;7.28;91.26
13312;BME280;34033;48.672;9.376;2024-03-02T00:41:30;97423.88;;;7.25;91.47
13312;BME280;34033;48.672;9.376;2024-03-02T00:44:15;97423.47;;;7.23;91.60
13312;BME280;34033;48.672;9.376;2024-03-02T00:46:41;97431.41;;;7.21;91.86
13312;BME280;34033;48.672;9.376;2024-03-02T00:49:23;97438.97;;;7.20;91.96
13312;BME280;34033;48.672;9.376;2024-03-02T00:51:51;97431.03;;;7.22;91.82
13312;BME280;34033;48.672;9.376;2024-03-02T00:54:35;97431.03;;;7.22;92.06
13312;BME280;34033;48.672;9.376;2024-03-02T00:57:00;97427.03;;;7.20;91.50
13312;BME280;34033;48.672;9.376;2024-03-02T00:59:25;97421.06;;;7.18;91.79
13312;BME280;34033;48.672;9.376;2024-03-02T01:01:51;97429.41;;;7.18;91.11
13312;BME280;34033;48.672;9.376;2024-03-02T01:04:17;97421.47;;;7.16;91.74
13312;BME280;34033;48.672;9.376;2024-03-02T01:06:43;97422.25;;;7.13;91.32
13312;BME280;34033;48.672;9.376;2024-03-02T01:09:08;97429.78;;;7.12;90.94
13312;BME280;34033;48.672;9.376;2024-03-02T01:11:34;97413.53;;;7.11;90.80
13312;BME280;34033;48.672;9.376;2024-03-02T01:13:59;97417.09;;;7.15;90.90
13312;BME280;34033;48.672;9.376;2024-03-02T01:16:24;97413.53;;;7.15;90.88
13312;BME280;34033;48.672;9.376;2024-03-02T01:18:50;97417.88;;;7.12;90.91
13312;BME280;34033;48.672;9.376;2024-03-02T01:21:15;97419.09;;;7.11;90.30
13312;BME280;34033;48.672;9.376;2024-03-02T01:23:41;97411.94;;;7.10;89.86
13312;BME280;34033;48.672;9.376;2024-03-02T01:26:06;97416.31;;;7.11;89.85
13312;BME280;34033;48.672;9.376;2024-03-02T01:28:32;97412.69;;;7.07;89.61
13312;BME280;34033;48.672;9.376;2024-03-02T01:30:57;97411.13;;;7.09;90.40
13312;BME280;34033;48.672;9.376;2024-03-02T01:33:23;97410.38;;;7.20;90.48
13312;BME280;34033;48.672;9.376;2024-03-02T01:35:49;97415.91;;;7.23;90.40
13312;BME280;34033;48.672;9.376;2024-03-02T01:38:14;97417.50;;;7.13;90.17
13312;BME280;34033;48.672;9.376;2024-03-02T01:40:40;97413.13;;;7.09;90.76
13312;BME280;34033;48.672;9.376;2024-03-02T01:43:06;97414.25;;;6.97;91.22
13312;BME280;34033;48.672;9.376;2024-03-02T01:45:31;97411.88;;;6.89;92.98
13312;BME280;34033;48.672;9.376;2024-03-02T01:47:57;97410.69;;;6.93;93.39
13312;BME280;34033;48.672;9.376;2024-03-02T01:52:52;97415.81;;;6.95;92.81
13312;BME280;34033;48.672;9.376;2024-03-02T01:55:17;97407.91;;;6.93;92.97
13312;BME280;34033;48.672;9.376;2024-03-02T01:57:43;97411.88;;;6.92;93.04
13312;BME280;34033;48.672;9.376;2024-03-02T02:00:10;97403.91;;;6.91;92.01
13312;BME280;34033;48.672;9.376;2024-03-02T02:02:36;97396.38;;;6.91;91.52
13312;BME280;34033;48.672;9.376;2024-03-02T02:05:01;97396.75;;;6.90;91.81
13312;BME280;34033;48.672;9.376;2024-03-02T02:07:26;97390.81;;;6.88;91.09
13312;BME280;34033;48.672;9.376;2024-03-02T02:09:52;97392.41;;;6.89;91.42
13312;BME280;34033;48.672;9.376;2024-03-02T02:12:17;97399.53;;;6.90;91.14
13312;BME280;34033;48.672;9.376;2024-03-02T02:14:49;97404.72;;;6.88;91.09
13312;BME280;34033;48.672;9.376;2024-03-02T02:17:15;97399.13;;;6.84;90.87
13312;BME280;34033;48.672;9.376;2024-03-02T02:19:41;97400.75;;;6.89;90.87
13312;BME280;34033;48.672;9.376;2024-03-02T02:22:06;97390.41;;;6.86;90.56
13312;BME280;34033;48.672;9.376;2024-03-02T02:24:32;97397.94;;;6.82;91.19
13312;BME280;34033;48.672;9.376;2024-03-02T02:26:57;97387.22;;;6.77;91.33
13312;BME280;34033;48.672;9.376;2024-03-02T02:29:22;97399.50;;;6.72;90.88
13312;BME280;34033;48.672;9.376;2024-03-02T02:31:48;97392.72;;;6.73;90.38
13312;BME280;34033;48.672;9.376;2024-03-02T02:34:14;97389.94;;;6.73;90.30
13312;BME280;34033;48.672;9.376;2024-03-02T02:36:40;97385.94;;;6.63;90.93
13312;BME280;34033;48.672;9.376;2024-03-02T02:39:07;97390.69;;;6.59;90.97
13312;BME280;34033;48.672;9.376;2024-03-02T02:41:33;97398.22;;;6.55;90.17
13312;BME280;34033;48.672;9.376;2024-03-02T02:43:58;97387.50;;;6.54;90.18
13312;BME280;34033;48.672;9.376;2024-03-02T02:46:24;97390.66;;;6.49;90.12
13312;BME280;34033;48.672;9.376;2024-03-02T02:48:49;97383.50;;;6.44;90.40
13312;BME280;34033;48.672;9.376;2024-03-02T02:51:16;97391.03;;;6.44;90.21
13312;BME280;34033;48.672;9.376;2024-03-02T02:53:42;97390.22;;;6.43;89.97
13312;BME280;34033;48.672;9.376;2024-03-02T02:56:07;97382.66;;;6.40;90.17
13312;BME280;34033;48.672;9.376;2024-03-02T02:58:32;97379.06;;;6.40;90.16
13312;BME280;34033;48.672;9.376;2024-03-02T03:00:58;97383.44;;;6.41;89.69
13312;BME280;34033;48.672;9.376;2024-03-02T03:03:23;97384.25;;;6.41;89.27
13312;BME280;34033;48.672;9.376;2024-03-02T03:05:49;97378.31;;;6.39;89.29
13312;BME280;34033;48.672;9.376;2024-03-02T03:08:14;97376.28;;;6.36;88.88
13312;BME280;34033;48.672;9.376;2024-03-02T03:10:41;97376.72;;;6.38;89.10
13312;BME280;34033;48.672;9.376;2024-03-02T03:13:06;97378.28;;;6.36;89.10
13312;BME280;34033;48.672;9.376;2024-03-02T03:15:34;97371.91;;;6.35;88.64
13312;BME280;34033;48.672;9.376;2024-03-02T03:17:59;97369.56;;;6.41;88.29
13312;BME280;34033;48.672;9.376;2024-03-02T03:20:25;97372.34;;;6.37;88.39
13312;BME280;34033;48.672;9.376;2024-03-02T03:22:50;97375.88;;;6.34;88.17
13312;BME280;34033;48.672;9.376;2024-03-02T03:25:15;97377.84;;;6.30;87.80
13312;BME280;34033;48.672;9.376;2024-03-02T03:27:41;97382.97;;;6.24;88.24
13312;BME280;34033;48.672;9.376;2024-03-02T03:30:07;97385.34;;;6.22;88.56
13312;BME280;34033;48.672;9.376;2024-03-02T03:32:32;97381.34;;;6.20;88.40
13312;BME280;34033;48.672;9.376;2024-03-02T03:34:57;97386.09;;;6.19;87.98
13312;BME280;34033;48.672;9.376;2024-03-02T03:37:23;97387.28;;;6.15;88.21
13312;BME280;34033;48.672;9.376;2024-03-02T03:39:49;97389.63;;;6.09;88.48
13312;BME280;34033;48.672;9.376;2024-03-02T03:42:14;97386.84;;;6.06;88.41
13312;BME280;34033;48.672;9.376;2024-03-02T03:44:39;97386.00;;;6.02;88.38
13312;BME280;34033;48.672;9.376;2024-03-02T03:47:06;97393.50;;;6.01;88.07
13312;BME280;34033;48.672;9.376;2024-03-02T03:49:32;97390.72;;;5.98;87.89
13312;BME280;34033;48.672;9.376;2024-03-02T03:51:57;97390.72;;;5.98;88.10
13312;BME280;34033;48.672;9.376;2024-03-02T03:54:22;97388.31;;;5.96;87.97
13312;BME280;34033;48.672;9.376;2024-03-02T03:56:48;97391.47;;;5.91;87.54
13312;BME280;34033;48.672;9.376;2024-03-02T03:59:13;97387.50;;;5.89;87.64
13312;BME280;34033;48.672;9.376;2024-03-02T04:01:38;97389.91;;;5.94;87.25
13312;BME280;34033;48.672;9.376;2024-03-02T04:04:04;97390.28;;;5.89;87.18
13312;BME280;34033;48.672;9.376;2024-03-02T04:06:29;97387.03;;;5.86;87.57
13312;BME280;34033;48.672;9.376;2024-03-02T04:08:55;97383.84;;;5.84;87.59
13312;BME280;34033;48.672;9.376;2024-03-02T04:11:20;97385.06;;;5.83;86.94
13312;BME280;34033;48.672;9.376;2024-03-02T04:13:46;97390.19;;;5.81;86.73
13312;BME280;34033;48.672;9.376;2024-03-02T04:16:11;97386.59;;;5.77;86.72
13312;BME280;34033;48.672;9.376;2024-03-02T04:18:37;97388.19;;;5.78;86.65
13312;BME280;34033;48.672;9.376;2024-03-02T04:21:03;97387.34;;;5.74;86.55
13312;BME280;34033;48.672;9.376;2024-03-02T04:23:28;97391.28;;;5.73;86.48
13312;BME280;34033;48.672;9.376;2024-03-02T04:25:54;97388.91;;;5.72;86.24
13312;BME280;34033;48.672;9.376;2024-03-02T04:28:19;97388.50;;;5.70;86.29
13312;BME280;34033;48.672;9.376;2024-03-02T04:30:44;97391.25;;;5.66;86.40
13312;BME280;34033;48.672;9.376;2024-03-02T04:33:10;97391.25;;;5.66;86.17
13312;BME280;34033;48.672;9.376;2024-03-02T04:35:36;97397.94;;;5.62;85.32
13312;BME280;34033;48.672;9.376;2024-03-02T04:38:01;97389.22;;;5.60;85.39
13312;BME280;34033;48.672;9.376;2024-03-02T04:40:27;97387.59;;;5.55;85.67
13312;BME280;34033;48.672;9.376;2024-03-02T04:42:52;97397.09;;;5.54;85.46
13312;BME280;34033;48.672;9.376;2024-03-02T04:45:17;97382.81;;;5.52;85.32
13312;BME280;34033;48.672;9.376;2024-03-02T04:47:42;97395.09;;;5.51;85.18
13312;BME280;34033;48.672;9.376;2024-03-02T04:50:08;97395.09;;;5.51;85.20
13312;BME280;34033;48.672;9.376;2024-03-02T04:52:33;97396.22;;;5.46;85.44
13312;BME280;34033;48.672;9.376;2024-03-02T04:54:59;97397.78;;;5.44;85.94
13312;BME280;34033;48.672;9.376;2024-03-02T04:57:43;97399.75;;;5.40;86.09
13312;BME280;34033;48.672;9.376;2024-03-02T05:00:09;97397.72;;;5.37;85.55
13312;BME280;34033;48.672;9.376;2024-03-02T05:02:35;97403.25;;;5.37;85.07
13312;BME280;34033;48.672;9.376;2024-03-02T05:05:01;97406.03;;;5.37;84.87
13312;BME280;34033;48.672;9.376;2024-03-02T05:07:26;97401.25;;;5.34;85.03
13312;BME280;34033;48.672;9.376;2024-03-02T05:09:52;97396.91;;;5.33;85.31
13312;BME280;34033;48.672;9.376;2024-03-02T05:12:17;97397.69;;;5.33;85.16
13312;BME280;34033;48.672;9.376;2024-03-02T05:14:42;97398.84;;;5.29;85.36
13312;BME280;34033;48.672;9.376;2024-03-02T05:17:08;97403.53;;;5.25;84.74
13312;BME280;34033;48.672;9.376;2024-03-02T05:19:33;97399.13;;;5.20;84.55
13312;BME280;34033;48.672;9.376;2024-03-02T05:21:59;97398.69;;;5.15;84.17
13312;BME280;34033;48.672;9.376;2024-03-02T05:24:24;97393.50;;;5.13;84.36
13312;BME280;34033;48.672;9.376;2024-03-02T05:26:52;97393.47;;;5.10;84.57
13312;BME280;34033;48.672;9.376;2024-03-02T05:29:17;97397.44;;;5.09;84.15
13312;BME280;34033;48.672;9.376;2024-03-02T05:31:43;97396.22;;;5.06;84.04
13312;BME280;34033;48.672;9.376;2024-03-02T05:34:08;97397.78;;;5.03;84.29
13312;BME280;34033;48.672;9.376;2024-03-02T05:36:34;97400.97;;;5.06;84.12
13312;BME280;34033;48.672;9.376;2024-03-02T05:38:59;97402.44;;;4.96;85.82
13312;BME280;34033;48.672;9.376;2024-03-02T05:41:24;97409.66;;;5.04;85.90
13312;BME280;34033;48.672;9.376;2024-03-02T05:43:50;97411.69;;;5.07;86.03
13312;BME280;34033;48.672;9.376;2024-03-02T05:46:15;97407.66;;;5.01;86.20
13312;BME280;34033;48.672;9.376;2024-03-02T05:48:40;97400.88;;;4.98;86.20
13312;BME280;34033;48.672;9.376;2024-03-02T05:51:06;97407.25;;;5.02;86.04
13312;BME280;34033;48.672;9.376;2024-03-02T05:53:31;97421.78;;;4.92;86.09
13312;BME280;34033;48.672;9.376;2024-03-02T05:55:56;97415.78;;;4.87;86.67
13312;BME280;34033;48.672;9.376;2024-03-02T05:58:22;97413.44;;;4.89;86.81
13312;BME280;34033;48.672;9.376;2024-03-02T06:00:52;97414.56;;;4.84;87.11
13312;BME280;34033;48.672;9.376;2024-03-02T06:03:19;97425.22;;;4.82;87.32
13312;BME280;34033;48.672;9.376;2024-03-02T06:05:44;97418.84;;;4.78;87.50
13312;BME280;34033;48.672;9.376;2024-03-02T06:08:10;97418.41;;;4.76;87.09
13312;BME280;34033;48.672;9.376;2024-03-02T06:10:35;97420.03;;;4.77;87.22
13312;BME280;34033;48.672;9.376;2024-03-02T06:13:00;97423.97;;;4.76;86.46
13312;BME280;34033;48.672;9.376;2024-03-02T06:15:26;97423.16;;;4.76;86.21
13312;BME280;34033;48.672;9.376;2024-03-02T06:17:51;97423.53;;;4.74;86.06
13312;BME280;34033;48.672;9.376;2024-03-02T06:20:16;97425.94;;;4.76;86.22
13312;BME280;34033;48.672;9.376;2024-03-02T06:22:42;97437.84;;;4.80;86.13
13312;BME280;34033;48.672;9.376;2024-03-02T06:25:07;97437.91;;;4.83;86.67
13312;BME280;34033;48.672;9.376;2024-03-02T06:27:33;97439.44;;;4.81;86.93
13312;BME280;34033;48.672;9.376;2024-03-02T06:29:58;97439.88;;;4.83;86.05
13312;BME280;34033;48.672;9.376;2024-03-02T06:32:24;97437.47;;;4.81;86.30
13312;BME280;34033;48.672;9.376;2024-03-02T06:34:50;97443.06;;;4.85;85.90
13312;BME280;34033;48.672;9.376;2024-03-02T06:37:15;97439.97;;;4.90;86.21
13312;BME280;34033;48.672;9.376;2024-03-02T06:39:41;97448.97;;;4.83;86.26
13312;BME280;34033;48.672;9.376;2024-03-02T06:42:06;97452.00;;;4.75;86.34
13312;BME280;34033;48.672;9.376;2024-03-02T06:44:32;97452.78;;;4.72;86.71
13312;BME280;34033;48.672;9.376;2024-03-02T06:46:57;97451.94;;;4.68;86.76
13312;BME280;34033;48.672;9.376;2024-03-02T06:49:22;97447.97;;;4.69;87.05
13312;BME280;34033;48.672;9.376;2024-03-02T06:51:47;97448.03;;;4.72;86.82
13312;BME280;34033;48.672;9.376;2024-03-02T06:54:13;97452.81;;;4.75;86.91
13312;BME280;34033;48.672;9.376;2024-03-02T06:56:38;97452.06;;;4.78;86.86
13312;BME280;34033;48.672;9.376;2024-03-02T06:59:04;97446.94;;;4.80;87.34
13312;BME280;34033;48.672;9.376;2024-03-02T07:01:29;97445.38;;;5.13;94.45
13312;BME280;34033;48.672;9.376;2024-03-02T07:03:54;97440.00;;;5.67;97.64
13312;BME280;34033;48.672;9.376;2024-03-02T07:06:20;97440.00;;;6.15;100.00
13312;BME280;34033;48.672;9.376;2024-03-02T07:08:45;97453.34;;;5.95;93.40
13312;BME280;34033;48.672;9.376;2024-03-02T07:11:10;97453.16;;;5.77;86.41
13312;BME280;34033;48.672;9.376;2024-03-02T07:13:36;97468.16;;;5.36;84.19
13312;BME280;34033;48.672;9.376;2024-03-02T07:16:01;97464.13;;;5.30;84.75
13312;BME280;34033;48.672;9.376;2024-03-02T07:18:35;97468.06;;;5.25;85.83
13312;BME280;34033;48.672;9.376;2024-03-02T07:21:06;97460.75;;;5.47;87.01
13312;BME280;34033;48.672;9.376;2024-03-02T07:23:32;97450.31;;;5.70;87.00
13312;BME280;34033;48.672;9.376;2024-03-02T07:25:57;97452.63;;;6.05;85.59
13312;BME280;34033;48.672;9.376;2024-03-02T07:28:25;97450.84;;;7.13;100.00
13312;BME280;34033;48.672;9.376;2024-03-02T07:33:26;97444.81;;;6.94;90.38
13312;BME280;34033;48.672;9.376;2024-03-02T07:35:51;97452.69;;;6.85;86.65
13312;BME280;34033;48.672;9.376;2024-03-02T07:38:16;97456.25;;;6.82;84.14
13312;BME280;34033;48.672;9.376;2024-03-02T07:40:42;97456.22;;;6.75;83.06
13312;BME280;34033;48.672;9.376;2024-03-02T07:43:07;97470.53;;;6.84;81.97
13312;BME280;34033;48.672;9.376;2024-03-02T07:45:34;97476.91;;;6.84;80.73
13312;BME280;34033;48.672;9.376;2024-03-02T07:48:01;97459.81;;;6.79;80.98
13312;BME280;34033;48.672;9.376;2024-03-02T07:50:26;97450.72;;;6.82;80.92
13312;BME280;34033;48.672;9.376;2024-03-02T07:52:52;97457.44;;;6.81;80.70
13312;BME280;34033;48.672;9.376;2024-03-02T07:55:17;97451.13;;;6.87;80.70
13312;BME280;34033;48.672;9.376;2024-03-02T07:57:43;97455.25;;;7.22;90.43
13312;BME280;34033;48.672;9.376;2024-03-02T08:00:08;97453.25;;;7.26;87.34
13312;BME280;34033;48.672;9.376;2024-03-02T08:02:34;97460.44;;;7.41;81.75
13312;BME280;34033;48.672;9.376;2024-03-02T08:05:01;97454.88;;;7.44;80.62
13312;BME280;34033;48.672;9.376;2024-03-02T08:07:26;97452.94;;;7.59;80.76
13312;BME280;34033;48.672;9.376;2024-03-02T08:09:51;97452.19;;;7.66;79.89
13312;BME280;34033;48.672;9.376;2024-03-02T08:12:17;97449.38;;;7.69;80.29
13312;BME280;34033;48.672;9.376;2024-03-02T08:14:44;97442.25;;;7.72;80.59
13312;BME280;34033;48.672;9.376;2024-03-02T08:17:10;97445.41;;;7.74;80.11
13312;BME280;34033;48.672;9.376;2024-03-02T08:19:37;97435.09;;;7.74;80.68
13312;BME280;34033;48.672;9.376;2024-03-02T08:22:02;97437.47;;;7.76;80.88
13312;BME280;34033;48.672;9.376;2024-03-02T08:24:28;97441.84;;;7.77;80.70
13312;BME280;34033;48.672;9.376;2024-03-02T08:26:53;97437.13;;;9.42;100.00
13312;BME280;34033;48.672;9.376;2024-03-02T08:29:19;97416.88;;;10.75;100.00
13312;BME280;34033;48.672;9.376;2024-03-02T08:31:44;97418.56;;;10.69;100.00
13312;BME280;34033;48.672;9.376;2024-03-02T08:34:09;97428.88;;;9.83;100.00
13312;BME280;34033;48.672;9.376;2024-03-02T08:36:35;97427.78;;;9.70;96.48
13312;BME280;34033;48.672;9.376;2024-03-02T08:39:01;97426.69;;;9.50;85.91
13312;BME280;34033;48.672;9.376;2024-03-02T08:41:27;97417.28;;;9.23;81.34
13312;BME280;34033;48.672;9.376;2024-03-02T08:43:52;97420.50;;;9.17;79.61
13312;BME280;34033;48.672;9.376;2024-03-02T08:46:18;97409.38;;;9.10;79.37
13312;BME280;34033;48.672;9.376;2024-03-02T08:48:43;97415.78;;;9.07;80.03
13312;BME280;34033;48.672;9.376;2024-03-02T08:51:08;97415.78;;;9.07;80.85
13312;BME280;34033;48.672;9.376;2024-03-02T08:53:35;97412.13;;;9.25;81.24
13312;BME280;34033;48.672;9.376;2024-03-02T08:56:02;97404.31;;;9.60;82.75
13312;BME280;34033;48.672;9.376;2024-03-02T08:58:29;97410.59;;;9.72;80.45
13312;BME280;34033;48.672;9.376;2024-03-02T09:00:55;97404.34;;;9.57;78.85
13312;BME280;34033;48.672;9.376;2024-03-02T09:03:20;97406.81;;;9.48;78.61
13312;BME280;34033;48.672;9.376;2024-03-02T09:05:46;97414.34;;;9.51;78.35
13312;BME280;34033;48.672;9.376;2024-03-02T09:08:11;97412.31;;;9.55;78.63
13312;BME280;34033;48.672;9.376;2024-03-02T09:10:36;97405.50;;;9.59;78.89
13312;BME280;34033;48.672;9.376;2024-03-02T09:13:03;97405.09;;;9.61;78.04
13312;BME280;34033;48.672;9.376;2024-03-02T09:15:29;97404.66;;;9.66;78.25
13312;BME280;34033;48.672;9.376;2024-03-02T09:17:54;97406.69;;;9.62;77.19
13312;BME280;34033;48.672;9.376;2024-03-02T09:20:19;97407.47;;;9.66;78.00
13312;BME280;34033;48.672;9.376;2024-03-02T09:22:44;97409.09;;;9.60;77.89
13312;BME280;34033;48.672;9.376;2024-03-02T09:25:12;97411.41;;;9.72;77.63
13312;BME280;34033;48.672;9.376;2024-03-02T09:27:38;97408.88;;;9.88;77.41
13312;BME280;34033;48.672;9.376;2024-03-02T09:30:13;97406.44;;;9.97;77.24
13312;BME280;34033;48.672;9.376;2024-03-02T09:32:39;97409.09;;;10.12;76.82
13312;BME280;34033;48.672;9.376;2024-03-02T09:35:04;97406.63;;;10.24;76.44
13312;BME280;34033;48.672;9.376;2024-03-02T09:37:30;97401.41;;;10.30;75.52
13312;BME280;34033;48.672;9.376;2024-03-02T09:39:56;97401.63;;;10.46;74.92
13312;BME280;34033;48.672;9.376;2024-03-02T09:42:21;97399.88;;;10.59;74.73
13312;BME280;34033;48.672;9.376;2024-03-02T09:44:47;97400.09;;;10.75;74.21
13312;BME280;34033;48.672;9.376;2024-03-02T09:47:13;97383.91;;;10.94;73.83
13312;BME280;34033;48.672;9.376;2024-03-02T09:49:39;97387.31;;;11.08;72.92
13312;BME280;34033;48.672;9.376;2024-03-02T09:52:05;97381.44;;;10.99;70.70
13312;BME280;34033;48.672;9.376;2024-03-02T09:54:32;97386.06;;;11.13;71.04
13312;BME280;34033;48.672;9.376;2024-03-02T09:56:57;97375.47;;;11.27;70.91
13312;BME280;34033;48.672;9.376;2024-03-02T09:59:22;97372.13;;;11.40;70.59
13312;BME280;34033;48.672;9.376;2024-03-02T10:02:03;97376.66;;;11.57;70.18
13312;BME280;34033;48.672;9.376;2024-03-02T10:04:30;97379.00;;;11.58;68.74
13312;BME280;34033;48.672;9.376;2024-03-02T10:07:15;97371.84;;;11.57;68.89
13312;BME280;34033;48.672;9.376;2024-03-02T10:09:42;97363.66;;;11.70;69.07
13312;BME280;34033;48.672;9.376;2024-03-02T10:12:09;97353.84;;;11.85;70.08
13312;BME280;34033;48.672;9.376;2024-03-02T10:14:35;97351.91;;;12.05;69.31
13312;BME280;34033;48.672;9.376;2024-03-02T10:17:08;97346.03;;;12.20;68.53
13312;BME280;34033;48.672;9.376;2024-03-02T10:19:34;97351.75;;;12.36;68.03
13312;BME280;34033;48.672;9.376;2024-03-02T10:22:01;97346.19;;;12.56;67.90
13312;BME280;34033;48.672;9.376;2024-03-02T10:24:34;97353.38;;;12.57;66.57
13312;BME280;34033;48.672;9.376;2024-03-02T10:26:59;97342.75;;;12.68;65.19
13312;BME280;34033;48.672;9.376;2024-03-02T10:29:25;97342.53;;;12.78;64.26
13312;BME280;34033;48.672;9.376;2024-03-02T10:31:53;97338.72;;;12.88;63.63
13312;BME280;34033;48.672;9.376;2024-03-02T10:34:19;97341.84;;;13.10;64.07
13312;BME280;34033;48.672;9.376;2024-03-02T10:36:47;97330.28;;;13.28;63.48
13312;BME280;34033;48.672;9.376;2024-03-02T10:39:13;97331.72;;;13.16;60.51
13312;BME280;34033;48.672;9.376;2024-03-02T10:41:40;97327.44;;;13.08;61.69
13312;BME280;34033;48.672;9.376;2024-03-02T10:44:07;97330.16;;;12.76;61.36
13312;BME280;34033;48.672;9.376;2024-03-02T10:46:36;97329.97;;;13.03;61.55
13312;BME280;34033;48.672;9.376;2024-03-02T10:49:03;97318.91;;;13.15;60.42
13312;BME280;34033;48.672;9.376;2024-03-02T10:51:30;97315.78;;;13.29;60.05
13312;BME280;34033;48.672;9.376;2024-03-02T10:54:02;97305.72;;;13.48;60.47
13312;BME280;34033;48.672;9.376;2024-03-02T10:56:28;97312.06;;;13.68;60.11
13312;BME280;34033;48.672;9.376;2024-03-02T11:01:38;97305.31;;;13.98;58.19
13312;BME280;34033;48.672;9.376;2024-03-02T11:04:04;97295.66;;;13.99;57.83
13312;BME280;34033;48.672;9.376;2024-03-02T11:06:34;97286.16;;;13.93;57.42
13312;BME280;34033;48.672;9.376;2024-03-02T11:09:06;97281.94;;;13.85;57.29
13312;BME280;34033;48.672;9.376;2024-03-02T11:11:37;97284.59;;;13.92;57.79
13312;BME280;34033;48.672;9.376;2024-03-02T11:14:04;97276.31;;;14.01;56.68
13312;BME280;34033;48.672;9.376;2024-03-02T11:16:34;97275.34;;;14.08;56.93
13312;BME280;34033;48.672;9.376;2024-03-02T11:19:04;97265.69;;;14.09;56.17
13312;BME280;34033;48.672;9.376;2024-03-02T11:21:32;97268.94;;;14.07;56.39
13312;BME280;34033;48.672;9.376;2024-03-02T11:23:58;97266.28;;;14.16;55.60
13312;BME280;34033;48.672;9.376;2024-03-02T11:26:24;97259.81;;;14.03;55.72
13312;BME280;34033;48.672;9.376;2024-03-02T11:28:50;97253.72;;;14.21;54.94
13312;BME280;34033;48.672;9.376;2024-03-02T11:31:15;97251.69;;;14.38;53.70
13312;BME280;34033;48.672;9.376;2024-03-02T11:33:40;97241.72;;;14.62;54.29
13312;BME280;34033;48.672;9.376;2024-03-02T11:36:06;97239.13;;;14.55;54.64
13312;BME280;34033;48.672;9.376;2024-03-02T11:38:33;97239.94;;;14.68;54.99
13312;BME280;34033;48.672;9.376;2024-03-02T11:41:02;97230.16;;;14.73;53.59
13312;BME280;34033;48.672;9.376;2024-03-02T11:43:30;97230.84;;;14.89;52.84
13312;BME280;34033;48.672;9.376;2024-03-02T11:46:03;97218.63;;;15.09;52.19
13312;BME280;34033;48.672;9.376;2024-03-02T11:48:32;97225.38;;;15.24;52.20
13312;BME280;34033;48.672;9.376;2024-03-02T11:50:59;97221.09;;;15.32;51.59
13312;BME280;34033;48.672;9.376;2024-03-02T11:53:26;97204.50;;;15.47;51.08
13312;BME280;34033;48.672;9.376;2024-03-02T11:55:55;97201.25;;;15.61;51.59
13312;BME280;34033;48.672;9.376;2024-03-02T11:58:21;97198.38;;;15.86;50.12
13312;BME280;34033;48.672;9.376;2024-03-02T12:00:55;97197.81;;;16.13;49.89
13312;BME280;34033;48.672;9.376;2024-03-02T12:03:22;97189.38;;;16.35;48.15
13312;BME280;34033;48.672;9.376;2024-03-02T12:05:52;97176.50;;;16.34;46.63
13312;BME280;34033;48.672;9.376;2024-03-02T12:08:18;97177.16;;;16.16;47.03
13312;BME280;34033;48.672;9.376;2024-03-02T12:10:56;97176.06;;;16.35;46.43
13312;BME280;34033;48.672;9.376;2024-03-02T12:13:21;97173.69;;;16.55;46.87
13312;BME280;34033;48.672;9.376;2024-03-02T12:15:54;97165.44;;;16.61;46.50
13312;BME280;34033;48.672;9.376;2024-03-02T12:18:22;97171.09;;;16.61;46.67
13312;BME280;34033;48.672;9.376;2024-03-02T12:20:49;97173.06;;;16.82;46.98
13312;BME280;34033;48.672;9.376;2024-03-02T12:23:18;97171.16;;;17.10;47.57
13312;BME280;34033;48.672;9.376;2024-03-02T12:25:43;97157.72;;;17.23;47.17
13312;BME280;34033;48.672;9.376;2024-03-02T12:28:09;97148.84;;;17.43;47.35
13312;BME280;34033;48.672;9.376;2024-03-02T12:30:35;97147.47;;;17.57;45.83
13312;BME280;34033;48.672;9.376;2024-03-02T12:33:01;97134.41;;;17.50;44.15
13312;BME280;34033;48.672;9.376;2024-03-02T12:35:26;97133.56;;;17.22;44.22
13312;BME280;34033;48.672;9.376;2024-03-02T12:37:52;97124.19;;;17.25;45.80
13312;BME280;34033;48.672;9.376;2024-03-02T12:40:19;97127.31;;;17.27;45.79
13312;BME280;34033;48.672;9.376;2024-03-02T12:42:46;97125.44;;;17.42;46.04
13312;BME280;34033;48.672;9.376;2024-03-02T12:45:12;97130.34;;;17.42;45.75
13312;BME280;34033;48.672;9.376;2024-03-02T12:47:39;97124.47;;;17.18;44.89
13312;BME280;34033;48.672;9.376;2024-03-02T12:50:05;97118.53;;;17.34;45.45
13312;BME280;34033;48.672;9.376;2024-03-02T12:52:31;97119.03;;;17.51;44.63
13312;BME280;34033;48.672;9.376;2024-03-02T12:55:01;97119.13;;;17.97;44.32
13312;BME280;34033;48.672;9.376;2024-03-02T12:57:30;97118.75;;;18.31;42.74
13312;BME280;34033;48.672;9.376;2024-03-02T12:59:59;97118.53;;;18.53;40.36
13312;BME280;34033;48.672;9.376;2024-03-02T13:02:28;97110.31;;;18.82;39.76
13312;BME280;34033;48.672;9.376;2024-03-02T13:04:55;97109.09;;;18.74;37.62
13312;BME280;34033;48.672;9.376;2024-03-02T13:07:20;97113.19;;;18.73;37.99
13312;BME280;34033;48.672;9.376;2024-03-02T13:09:49;97107.16;;;18.89;37.96
13312;BME280;34033;48.672;9.376;2024-03-02T13:12:18;97105.00;;;19.08;38.10